Time;durP1;ratioP1;P1;durP2;ratioP2;P2;SDS_P1;SDS_P2;PMS_P1;PMS_P2;Temp;Humidity;BMP_temperature;BMP_pressure;BME280_temperature;BME280_humidity;BME280_pressure;Samples;Min_cycle;Max_cycle;Signal;HPM_P1;HPM_P2
2021/03/25 00:01:58;;;;;;;5.05;2.58;;;6.10;99.90;;;;;;4450861;32;20466;-80
2021/03/25 00:04:24;;;;;;;11.18;2.60;;;6.10;99.90;;;;;;4451948;32;20586;-80
2021/03/25 00:06:53;;;;;;;1.37;1.23;;;6.20;99.90;;;;;;4458024;32;20072;-80
2021/03/25 00:09:23;;;;;;;2.10;1.48;;;6.20;99.90;;;;;;4451190;32;20101;-80
2021/03/25 00:11:49;;;;;;;3.08;2.17;;;6.10;99.90;;;;;;4435642;32;20066;-81
2021/03/25 00:14:14;;;;;;;11.38;3.65;;;6.20;99.90;;;;;;4436032;32;20155;-81
2021/03/25 00:16:40;;;;;;;1.40;1.30;;;6.30;99.90;;;;;;4446767;32;20176;-81
2021/03/25 00:19:06;;;;;;;5.62;2.35;;;6.40;99.90;;;;;;4451939;32;20076;-81
2021/03/25 00:21:33;;;;;;;1.90;1.52;;;6.40;99.90;;;;;;4429120;27;20102;-86
2021/03/25 00:23:59;;;;;;;6.90;1.55;;;6.30;99.90;;;;;;4402694;32;20062;-86
2021/03/25 00:26:24;;;;;;;5.43;2.60;;;6.20;99.90;;;;;;4401983;32;20098;-87
2021/03/25 00:28:50;;;;;;;20.48;2.60;;;6.10;99.90;;;;;;4401968;32;20070;-87
2021/03/25 00:31:16;;;;;;;4.95;2.25;;;5.90;99.90;;;;;;4402578;32;20066;-87
2021/03/25 00:33:41;;;;;;;2.97;2.08;;;5.90;99.90;;;;;;4402482;32;20066;-87
2021/03/25 00:36:07;;;;;;;6.55;1.87;;;6.00;99.90;;;;;;4403439;32;20121;-86
2021/03/25 00:38:34;;;;;;;7.43;2.90;;;6.20;99.90;;;;;;4402497;32;20078;-87
2021/03/25 00:41:00;;;;;;;4.47;1.92;;;6.20;99.90;;;;;;4401987;32;20078;-86
2021/03/25 00:43:26;;;;;;;7.82;2.47;;;6.30;99.90;;;;;;4402832;32;20082;-87
2021/03/25 00:45:52;;;;;;;3.67;2.17;;;6.30;99.90;;;;;;4403504;32;20098;-86
2021/03/25 00:48:20;;;;;;;15.32;2.80;;;6.40;99.90;;;;;;4403411;32;20070;-86
2021/03/25 00:50:49;;;;;;;1.83;1.45;;;6.40;99.90;;;;;;4403414;32;20069;-87
2021/03/25 00:53:19;;;;;;;7.85;2.37;;;6.20;99.90;;;;;;4402867;32;20062;-87
2021/03/25 00:55:45;;;;;;;1.37;1.35;;;6.10;99.90;;;;;;4402642;32;20062;-86
2021/03/25 00:58:11;;;;;;;2.97;1.90;;;6.00;99.90;;;;;;4403524;32;20086;-86
2021/03/25 01:00:40;;;;;;;6.25;1.90;;;6.10;99.90;;;;;;4402200;32;20141;-87
2021/03/25 01:03:06;;;;;;;1.65;1.30;;;6.00;99.90;;;;;;4402578;32;20512;-86
2021/03/25 01:05:32;;;;;;;2.17;1.70;;;6.10;99.90;;;;;;4402421;32;20475;-87
2021/03/25 01:07:59;;;;;;;7.03;3.37;;;6.00;99.90;;;;;;4407422;32;20073;-87
2021/03/25 01:10:31;;;;;;;6.07;2.40;;;5.90;99.90;;;;;;4417619;32;20164;-87
2021/03/25 01:12:58;;;;;;;5.35;1.87;;;6.00;99.90;;;;;;4417348;32;20465;-87
2021/03/25 01:15:24;;;;;;;4.15;1.90;;;6.10;99.90;;;;;;4417198;32;20326;-87
2021/03/25 01:17:53;;;;;;;8.40;2.92;;;6.20;99.90;;;;;;4417612;32;20135;-87
2021/03/25 01:20:25;;;;;;;1.67;1.58;;;6.20;99.90;;;;;;4416603;32;20073;-87
2021/03/25 01:22:51;;;;;;;8.20;2.55;;;6.40;99.90;;;;;;4417150;32;20062;-87
2021/03/25 01:25:17;;;;;;;11.25;1.73;;;6.40;99.90;;;;;;4417712;32;20129;-87
2021/03/25 01:27:43;;;;;;;4.20;2.33;;;6.40;99.90;;;;;;4416563;32;20085;-87
2021/03/25 01:30:09;;;;;;;7.35;3.15;;;6.40;99.90;;;;;;4416595;32;20098;-87
2021/03/25 01:32:35;;;;;;;2.83;1.95;;;6.20;99.90;;;;;;4417813;32;20071;-87
2021/03/25 01:35:00;;;;;;;8.80;2.92;;;6.00;99.90;;;;;;4416727;32;20126;-87
2021/03/25 01:37:26;;;;;;;4.87;2.03;;;5.90;99.90;;;;;;4416514;32;20077;-87
2021/03/25 01:39:52;;;;;;;2.55;1.45;;;5.80;99.90;;;;;;4416832;32;20503;-87
2021/03/25 01:42:25;;;;;;;4.12;2.12;;;5.70;99.90;;;;;;4416452;32;20074;-88
2021/03/25 01:44:50;;;;;;;5.53;2.15;;;5.60;99.90;;;;;;4416600;32;20069;-87
2021/03/25 01:47:16;;;;;;;16.87;2.40;;;5.50;99.90;;;;;;4417549;32;20411;-87
2021/03/25 01:49:42;;;;;;;8.75;2.75;;;5.40;99.90;;;;;;4416766;32;20424;-87
2021/03/25 01:52:34;;;;;;;10.48;1.62;;;5.40;99.90;;;;;;4416657;32;20066;-87
2021/03/25 01:55:32;;;;;;;2.05;1.50;;;5.50;99.90;;;;;;4405090;32;20502;-87
2021/03/25 01:58:37;;;;;;;8.55;1.80;;;5.50;99.90;;;;;;4404394;32;20070;-87
2021/03/25 02:01:18;;;;;;;2.05;1.85;;;5.40;99.90;;;;;;4396600;32;20083;-87
2021/03/25 02:04:13;;;;;;;9.07;2.67;;;5.50;99.90;;;;;;4416957;32;20129;-87
2021/03/25 02:06:46;;;;;;;2.30;1.65;;;5.50;99.90;;;;;;4405184;32;20073;-87
2021/03/25 02:09:21;;;;;;;8.43;2.08;;;5.40;99.90;;;;;;4411228;32;20058;-87
2021/03/25 02:12:04;;;;;;;8.98;3.55;;;5.40;99.90;;;;;;4416583;32;20089;-87
2021/03/25 02:14:43;;;;;;;15.15;2.35;;;5.40;99.90;;;;;;4419357;32;20062;-87
2021/03/25 02:17:20;;;;;;;3.72;2.03;;;5.40;99.90;;;;;;4418485;32;20062;-87
2021/03/25 02:20:23;;;;;;;3.50;2.60;;;5.40;99.90;;;;;;4418032;32;20086;-87
2021/03/25 02:23:28;;;;;;;8.20;3.65;;;5.40;99.90;;;;;;4407313;32;20473;-87
2021/03/25 02:26:01;;;;;;;1.30;1.20;;;5.30;99.90;;;;;;4397857;32;20120;-87
2021/03/25 02:28:52;;;;;;;2.72;2.37;;;5.30;99.90;;;;;;4418802;32;20174;-87
2021/03/25 02:31:22;;;;;;;7.40;3.35;;;5.30;99.90;;;;;;4396318;32;20069;-87
2021/03/25 02:33:52;;;;;;;11.07;3.20;;;5.30;99.90;;;;;;4419475;32;20077;-87
2021/03/25 02:36:24;;;;;;;2.25;1.73;;;5.20;99.90;;;;;;4419745;32;20058;-87
2021/03/25 02:38:56;;;;;;;2.10;1.62;;;5.20;99.90;;;;;;4418855;32;20087;-87
2021/03/25 02:41:30;;;;;;;3.92;2.15;;;5.20;99.90;;;;;;4419954;32;20120;-87
2021/03/25 02:44:10;;;;;;;3.85;2.17;;;5.10;99.90;;;;;;4420831;32;20081;-86
2021/03/25 02:46:43;;;;;;;7.00;2.40;;;5.10;99.90;;;;;;4419685;32;20078;-86
2021/03/25 02:49:12;;;;;;;2.75;2.00;;;5.10;99.90;;;;;;4420150;32;20065;-87
2021/03/25 02:51:47;;;;;;;2.92;1.67;;;5.10;99.90;;;;;;4419097;32;20180;-86
2021/03/25 02:54:13;;;;;;;4.90;2.47;;;5.00;99.90;;;;;;4419188;32;20066;-86
2021/03/25 02:56:44;;;;;;;4.90;2.58;;;4.90;99.90;;;;;;4418969;32;20129;-87
2021/03/25 02:59:19;;;;;;;2.47;1.90;;;4.90;99.90;;;;;;4419117;32;20121;-86
2021/03/25 03:01:50;;;;;;;2.83;1.95;;;4.90;99.90;;;;;;4418724;32;20105;-86
2021/03/25 03:04:23;;;;;;;18.65;2.20;;;4.90;99.90;;;;;;4418545;32;20081;-86
2021/03/25 03:06:54;;;;;;;2.20;1.20;;;4.90;99.90;;;;;;4419306;32;20416;-86
2021/03/25 03:09:32;;;;;;;2.58;1.92;;;5.00;99.90;;;;;;4414846;32;20074;-86
2021/03/25 03:12:00;;;;;;;1.90;1.62;;;5.00;99.90;;;;;;4414092;32;20095;-86
2021/03/25 03:14:36;;;;;;;3.08;2.25;;;5.00;99.90;;;;;;4419015;32;20377;-86
2021/03/25 03:17:10;;;;;;;1.62;1.45;;;4.90;99.90;;;;;;4418590;32;20065;-86
2021/03/25 03:19:46;;;;;;;3.78;1.87;;;4.90;99.90;;;;;;4418463;32;20571;-86
2021/03/25 03:22:12;;;;;;;9.43;2.58;;;4.70;99.90;;;;;;4419236;32;20073;-86
2021/03/25 03:24:38;;;;;;;1.50;1.40;;;4.60;99.90;;;;;;4419365;32;20081;-86
2021/03/25 03:27:09;;;;;;;2.62;1.77;;;4.60;99.90;;;;;;4418817;32;20462;-87
2021/03/25 03:29:36;;;;;;;1.70;1.60;;;4.70;99.90;;;;;;4404116;32;20074;-87
2021/03/25 03:32:21;;;;;;;2.95;2.28;;;4.80;99.90;;;;;;4417850;32;20066;-87
2021/03/25 03:34:48;;;;;;;3.55;1.80;;;4.80;99.90;;;;;;4418776;32;20506;-87
2021/03/25 03:37:26;;;;;;;2.50;1.35;;;4.70;99.90;;;;;;4418776;32;20082;-87
2021/03/25 03:39:56;;;;;;;4.78;2.08;;;4.70;99.90;;;;;;4418402;32;20401;-87
2021/03/25 03:42:24;;;;;;;2.75;2.15;;;4.50;99.90;;;;;;4419395;32;20082;-87
2021/03/25 03:44:53;;;;;;;2.97;1.92;;;4.60;99.90;;;;;;4419627;32;20073;-86
2021/03/25 03:47:22;;;;;;;1.67;1.55;;;4.50;99.90;;;;;;4420381;32;20066;-86
2021/03/25 03:49:53;;;;;;;7.37;2.97;;;4.40;99.90;;;;;;4420065;32;20077;-86
2021/03/25 03:52:24;;;;;;;23.45;1.95;;;4.40;99.90;;;;;;4418723;32;20118;-86
2021/03/25 03:54:51;;;;;;;26.25;5.45;;;4.50;99.90;;;;;;4418975;32;20454;-87
2021/03/25 03:57:29;;;;;;;8.18;3.10;;;4.50;99.90;;;;;;4417777;32;20074;-87
2021/03/25 04:00:09;;;;;;;3.42;2.15;;;4.50;99.90;;;;;;4418509;32;20069;-87
2021/03/25 04:02:57;;;;;;;1.40;1.23;;;4.70;99.90;;;;;;4418348;32;20120;-86
2021/03/25 04:05:29;;;;;;;3.62;1.45;;;4.70;99.90;;;;;;4406700;32;20535;-87
2021/03/25 04:08:05;;;;;;;2.55;1.70;;;4.70;99.90;;;;;;4417957;32;20097;-87
2021/03/25 04:10:36;;;;;;;5.35;2.55;;;4.80;99.90;;;;;;4416861;32;20065;-86
2021/03/25 04:13:04;;;;;;;11.90;1.77;;;4.80;99.90;;;;;;4417244;32;20065;-86
2021/03/25 04:15:32;;;;;;;2.80;1.77;;;4.80;99.90;;;;;;4418206;32;20643;-86
2021/03/25 04:18:06;;;;;;;4.07;1.77;;;4.70;99.90;;;;;;4417331;32;20077;-87
2021/03/25 04:20:33;;;;;;;5.10;1.55;;;4.60;99.90;;;;;;4417728;32;20094;-87
2021/03/25 04:23:03;;;;;;;6.28;3.22;;;4.60;99.90;;;;;;4417959;32;20111;-86
2021/03/25 04:25:36;;;;;;;3.70;1.98;;;4.60;99.90;;;;;;4417895;32;20069;-87
2021/03/25 04:28:08;;;;;;;4.95;2.42;;;4.50;99.90;;;;;;4418188;32;20073;-86
2021/03/25 04:30:39;;;;;;;3.78;1.27;;;4.50;99.90;;;;;;4418197;32;20070;-87
2021/03/25 04:33:05;;;;;;;8.32;2.85;;;4.30;99.90;;;;;;4419175;32;20066;-87
2021/03/25 04:35:31;;;;;;;2.50;2.20;;;4.20;99.90;;;;;;4418638;32;20403;-87
2021/03/25 04:37:58;;;;;;;3.17;1.40;;;4.30;99.90;;;;;;4417940;32;20134;-86
2021/03/25 04:40:28;;;;;;;1.35;1.15;;;4.20;99.90;;;;;;4417930;32;20124;-87
2021/03/25 04:42:54;;;;;;;5.78;2.80;;;4.20;99.90;;;;;;4418634;32;20074;-86
2021/03/25 04:45:25;;;;;;;2.17;1.17;;;4.20;99.90;;;;;;4418721;32;20090;-87
2021/03/25 04:47:53;;;;;;;12.77;2.90;;;4.20;99.90;;;;;;4405669;32;20089;-87
2021/03/25 04:50:24;;;;;;;5.03;1.65;;;4.20;99.90;;;;;;4419360;32;20477;-86
2021/03/25 04:53:00;;;;;;;6.22;2.00;;;4.00;99.90;;;;;;4411825;32;20480;-87
2021/03/25 04:55:26;;;;;;;6.90;2.40;;;3.90;99.90;;;;;;4418651;32;20070;-86
2021/03/25 04:57:57;;;;;;;8.25;3.10;;;3.90;99.90;;;;;;4417836;32;20117;-86
2021/03/25 05:00:27;;;;;;;2.05;1.73;;;3.90;99.90;;;;;;4418437;32;20065;-87
2021/03/25 05:02:54;;;;;;;2.10;1.40;;;3.90;99.90;;;;;;4419277;32;20119;-87
2021/03/25 05:05:24;;;;;;;1.48;1.37;;;3.80;99.90;;;;;;4418622;32;20254;-86
2021/03/25 05:07:57;;;;;;;2.95;1.98;;;4.00;99.90;;;;;;4418049;32;20062;-86
2021/03/25 05:10:42;;;;;;;13.10;1.90;;;4.00;99.90;;;;;;4408313;32;20393;-86
2021/03/25 05:13:20;;;;;;;5.53;2.83;;;4.10;99.90;;;;;;4403389;32;20151;-87
2021/03/25 05:15:46;;;;;;;2.60;2.03;;;4.20;99.90;;;;;;4402993;32;20154;-86
2021/03/25 05:18:21;;;;;;;5.50;3.10;;;4.20;99.90;;;;;;4414186;32;20053;-86
2021/03/25 05:20:57;;;;;;;3.37;1.62;;;4.10;99.90;;;;;;4417645;32;20074;-86
2021/03/25 05:23:33;;;;;;;1.40;1.33;;;4.00;99.90;;;;;;4412035;32;20468;-86
2021/03/25 05:26:06;;;;;;;3.00;1.55;;;3.90;99.90;;;;;;4415732;32;20101;-85
2021/03/25 05:28:37;;;;;;;3.60;2.75;;;4.00;99.90;;;;;;4409901;32;20092;-86
2021/03/25 05:31:06;;;;;;;1.73;1.60;;;4.00;99.90;;;;;;4419105;32;20066;-87
2021/03/25 05:33:35;;;;;;;3.97;1.77;;;3.90;99.90;;;;;;4418492;32;20124;-86
2021/03/25 05:36:06;;;;;;;4.30;2.20;;;4.00;99.90;;;;;;4419588;32;20077;-86
2021/03/25 05:38:32;;;;;;;;;;;4.10;99.90;;;;;;4417288;32;20082;-86
2021/03/25 05:41:09;;;;;;;19.83;1.98;;;4.30;99.90;;;;;;4409560;32;19957;-86
2021/03/25 05:44:06;;;;;;;2.62;1.33;;;4.30;99.90;;;;;;4418898;32;20065;-86
2021/03/25 05:47:00;;;;;;;2.60;1.35;;;4.20;99.90;;;;;;4405497;32;20066;-86
2021/03/25 05:49:49;;;;;;;1.85;1.73;;;4.30;99.90;;;;;;4403421;32;20132;-87
2021/03/25 05:52:37;;;;;;;6.45;1.85;;;4.50;99.90;;;;;;4406929;32;20135;-87
2021/03/25 05:55:36;;;;;;;1.85;1.62;;;4.50;99.90;;;;;;4418651;32;20081;-87
2021/03/25 05:58:19;;;;;;;5.78;2.47;;;4.40;99.90;;;;;;4408756;32;20116;-87
2021/03/25 06:00:52;;;;;;;2.15;1.45;;;4.40;99.90;;;;;;4416472;32;20150;-87
2021/03/25 06:03:20;;;;;;;7.40;2.95;;;4.40;99.90;;;;;;4411358;32;20422;-87
2021/03/25 06:05:51;;;;;;;3.42;2.20;;;4.50;99.90;;;;;;4416004;32;20070;-87
2021/03/25 06:08:45;;;;;;;3.62;1.58;;;4.50;99.90;;;;;;4417159;32;20082;-87
2021/03/25 06:11:29;;;;;;;12.00;3.42;;;4.50;99.90;;;;;;4392000;32;20062;-87
2021/03/25 06:14:04;;;;;;;30.25;2.00;;;4.60;99.90;;;;;;4416794;32;20086;-87
2021/03/25 06:16:50;;;;;;;13.75;3.35;;;4.80;99.90;;;;;;4422965;32;20065;-87
2021/03/25 06:19:38;;;;;;;14.48;2.30;;;4.90;99.90;;;;;;4405095;32;20523;-87
2021/03/25 06:22:08;;;;;;;30.02;3.55;;;4.90;99.90;;;;;;4415782;32;20077;-87
2021/03/25 06:24:39;;;;;;;1.77;1.30;;;5.00;99.90;;;;;;4415980;32;20070;-88
2021/03/25 06:27:43;;;;;;;7.95;2.90;;;5.10;99.90;;;;;;4407980;32;20094;-88
2021/03/25 06:30:14;;;;;;;3.92;2.30;;;5.30;99.90;;;;;;4381060;32;20136;-87
2021/03/25 06:32:47;;;;;;;7.68;2.45;;;5.40;99.90;;;;;;4395267;32;20271;-88
2021/03/25 06:35:20;;;;;;;10.00;2.47;;;5.40;99.90;;;;;;4406230;32;20085;-87
2021/03/25 06:38:00;;;;;;;1.80;1.40;;;5.40;99.90;;;;;;4416841;32;20061;-86
2021/03/25 06:41:07;;;;;;;1.67;1.58;;;5.30;99.90;;;;;;4413220;32;20088;-87
2021/03/25 06:43:46;;;;;;;1.62;1.27;;;5.30;99.90;;;;;;4404273;32;20085;-88
2021/03/25 06:46:36;;;;;;;6.70;2.70;;;5.30;99.90;;;;;;4414653;32;20121;-87
2021/03/25 06:49:27;;;;;;;2.03;1.80;;;5.30;99.90;;;;;;4416410;32;20127;-87
2021/03/25 06:52:29;;;;;;;2.65;1.45;;;5.30;99.90;;;;;;4418339;32;20407;-86
2021/03/25 06:55:13;;;;;;;2.65;1.65;;;5.40;99.90;;;;;;4393282;32;20350;-76
2021/03/25 06:57:50;;;;;;;3.97;2.05;;;5.60;99.90;;;;;;4394560;32;20497;-75
2021/03/25 07:00:20;;;;;;;4.15;2.15;;;5.70;99.90;;;;;;4380869;32;20089;-75
2021/03/25 07:02:47;;;;;;;6.60;2.20;;;5.90;99.90;;;;;;4386670;32;20050;-76
2021/03/25 07:05:21;;;;;;;3.42;2.15;;;6.10;99.90;;;;;;4379762;32;20594;-76
2021/03/25 07:07:53;;;;;;;7.68;2.20;;;6.20;99.90;;;;;;4379977;32;20058;-75
2021/03/25 07:10:19;;;;;;;2.12;1.20;;;6.30;99.90;;;;;;4380403;32;20122;-75
2021/03/25 07:12:47;;;;;;;4.68;1.62;;;6.30;99.90;;;;;;4378879;32;20077;-75
2021/03/25 07:15:28;;;;;;;8.32;1.67;;;6.40;99.90;;;;;;4379170;32;20087;-76
2021/03/25 07:17:54;;;;;;;3.40;1.80;;;6.40;99.90;;;;;;4379455;32;20118;-76
2021/03/25 07:20:27;;;;;;;7.62;2.42;;;6.50;99.90;;;;;;4382572;32;20095;-76
2021/03/25 07:23:12;;;;;;;3.97;1.50;;;6.70;99.90;;;;;;4375168;32;20058;-76
2021/03/25 07:25:43;;;;;;;5.07;2.03;;;6.80;99.90;;;;;;4378030;32;20085;-76
2021/03/25 07:28:16;;;;;;;4.30;2.20;;;6.80;99.90;;;;;;4379291;32;20075;-75
2021/03/25 07:30:47;;;;;;;2.58;2.08;;;7.00;99.90;;;;;;4382121;32;20126;-76
2021/03/25 07:33:17;;;;;;;6.12;2.33;;;7.10;99.90;;;;;;4377124;32;20071;-76
2021/03/25 07:36:07;;;;;;;3.67;2.45;;;7.30;99.90;;;;;;4372977;32;20071;-75
2021/03/25 07:38:37;;;;;;;4.53;2.60;;;7.50;99.90;;;;;;4359526;32;20559;-76
2021/03/25 07:41:09;;;;;;;2.55;2.08;;;7.70;99.90;;;;;;4374839;32;20598;-75
2021/03/25 07:44:02;;;;;;;10.30;2.60;;;7.80;99.90;;;;;;4381591;32;20106;-76
2021/03/25 07:46:34;;;;;;;2.28;1.77;;;7.90;99.90;;;;;;4382487;32;20359;-76
2021/03/25 07:49:13;;;;;;;2.55;1.90;;;8.10;99.90;;;;;;4380507;32;20067;-75
2021/03/25 07:52:01;;;;;;;16.60;3.28;;;8.20;99.90;;;;;;4381660;32;20059;-74
2021/03/25 07:54:30;;;;;;;10.00;3.08;;;8.30;99.90;;;;;;4378799;32;20147;-75
2021/03/25 07:56:59;;;;;;;1.42;1.30;;;8.40;99.90;;;;;;4376608;32;20198;-75
2021/03/25 07:59:29;;;;;;;7.37;2.55;;;8.50;99.90;;;;;;4380356;32;20527;-75
2021/03/25 08:01:58;;;;;;;12.18;1.50;;;8.60;99.90;;;;;;4382229;32;20369;-74
2021/03/25 08:04:27;;;;;;;6.40;2.62;;;8.80;99.90;;;;;;4379222;32;20113;-75
2021/03/25 08:07:05;;;;;;;5.65;1.60;;;8.90;99.90;;;;;;4381057;32;20133;-75
2021/03/25 08:09:41;;;;;;;5.28;2.47;;;9.00;99.90;;;;;;4380668;32;20071;-74
2021/03/25 08:12:07;;;;;;;2.12;1.70;;;9.20;99.90;;;;;;4379618;32;20078;-75
2021/03/25 08:14:36;;;;;;;6.62;2.72;;;9.30;99.90;;;;;;4379102;32;20098;-75
2021/03/25 08:17:15;;;;;;;5.72;2.42;;;9.40;99.90;;;;;;4379427;32;20642;-75
2021/03/25 08:19:54;;;;;;;6.43;1.87;;;9.50;99.90;;;;;;4380482;32;20090;-75
2021/03/25 08:22:41;;;;;;;4.53;2.33;;;9.60;99.90;;;;;;4379538;32;20062;-76
2021/03/25 08:25:29;;;;;;;3.10;2.17;;;9.60;99.90;;;;;;4375354;32;20137;-76
2021/03/25 08:28:17;;;;;;;4.43;2.83;;;9.90;99.90;;;;;;4375107;32;20129;-75
2021/03/25 08:30:54;;;;;;;4.60;1.70;;;10.10;99.90;;;;;;4372372;32;20091;-75
2021/03/25 08:33:28;;;;;;;5.00;2.00;;;10.20;99.90;;;;;;4374415;32;20565;-75
2021/03/25 08:36:03;;;;;;;18.00;4.43;;;10.30;99.90;;;;;;4377258;32;20515;-74
2021/03/25 08:38:39;;;;;;;6.47;2.67;;;10.50;99.90;;;;;;4380056;32;20531;-75
2021/03/25 08:41:11;;;;;;;5.68;1.52;;;10.50;99.90;;;;;;4382161;32;20074;-75
2021/03/25 08:43:50;;;;;;;8.65;2.05;;;10.70;99.90;;;;;;4375725;32;20092;-75
2021/03/25 08:46:31;;;;;;;8.00;2.00;;;10.90;99.90;;;;;;4376858;32;20105;-75
2021/03/25 08:49:03;;;;;;;3.70;1.75;;;10.90;99.90;;;;;;4379081;32;20142;-74
2021/03/25 08:51:36;;;;;;;1.85;1.67;;;11.20;99.90;;;;;;4380645;32;20078;-77
2021/03/25 08:54:31;;;;;;;7.90;1.92;;;11.40;99.90;;;;;;4381411;32;20102;-78
2021/03/25 08:57:03;;;;;;;5.68;2.58;;;11.50;99.90;;;;;;4369880;32;20082;-77
2021/03/25 08:59:42;;;;;;;9.52;2.70;;;11.60;99.90;;;;;;4383032;32;20535;-77
2021/03/25 09:02:34;;;;;;;7.32;3.45;;;11.80;99.90;;;;;;4382198;32;20086;-77
2021/03/25 09:05:19;;;;;;;11.40;3.40;;;12.10;99.90;;;;;;4368400;32;20515;-77
2021/03/25 09:07:45;;;;;;;6.68;2.60;;;12.20;99.90;;;;;;4381055;32;20082;-77
2021/03/25 09:10:20;;;;;;;17.62;2.67;;;12.30;99.90;;;;;;4381600;32;20475;-77
2021/03/25 09:12:45;;;;;;;11.10;2.15;;;12.40;99.90;;;;;;4385218;32;20443;-78
2021/03/25 09:15:11;;;;;;;7.20;2.67;;;12.50;99.90;;;;;;4383947;32;20492;-76
2021/03/25 09:17:41;;;;;;;5.87;2.20;;;12.60;99.90;;;;;;4376720;32;20140;-76
2021/03/25 09:20:11;;;;;;;8.30;2.30;;;12.60;99.90;;;;;;4381105;32;20086;-76
2021/03/25 09:22:47;;;;;;;1.75;1.48;;;12.80;99.90;;;;;;4380051;32;20097;-76
2021/03/25 09:25:15;;;;;;;4.60;2.15;;;13.00;99.90;;;;;;4375101;32;20079;-75
2021/03/25 09:28:19;;;;;;;10.38;2.78;;;13.20;99.90;;;;;;4378786;32;20071;-76
2021/03/25 09:31:09;;;;;;;9.00;2.08;;;13.10;99.90;;;;;;4377407;32;20062;-76
2021/03/25 09:33:39;;;;;;;10.93;1.90;;;13.50;99.90;;;;;;4380091;32;20078;-76
2021/03/25 09:36:23;;;;;;;2.80;1.58;;;13.40;99.90;;;;;;4381896;32;20507;-76
2021/03/25 09:39:10;;;;;;;4.00;1.92;;;13.30;99.90;;;;;;4376537;32;89628;-76
2021/03/25 09:41:38;;;;;;;2.90;1.58;;;13.30;99.90;;;;;;4377014;32;20066;-77
2021/03/25 09:44:17;;;;;;;5.25;2.12;;;13.40;99.90;;;;;;4385144;32;20477;-77
2021/03/25 09:46:48;;;;;;;8.07;1.60;;;13.90;99.90;;;;;;4372252;32;20125;-76
2021/03/25 09:49:20;;;;;;;8.95;2.45;;;14.30;99.90;;;;;;4377902;32;20067;-77
2021/03/25 09:51:49;;;;;;;8.93;2.08;;;14.50;99.90;;;;;;4376960;32;20401;-77
2021/03/25 09:54:22;;;;;;;12.60;3.45;;;14.60;99.90;;;;;;4382183;32;20117;-77
2021/03/25 09:57:27;;;;;;;4.47;2.42;;;14.60;99.90;;;;;;4382351;32;20495;-76
2021/03/25 09:59:57;;;;;;;13.70;2.80;;;14.70;99.90;;;;;;4378443;32;20151;-76
2021/03/25 10:02:44;;;;;;;6.50;1.62;;;14.80;99.90;;;;;;4380975;32;20150;-76
2021/03/25 10:05:30;;;;;;;2.95;2.03;;;15.00;99.90;;;;;;4366904;32;20063;-77
2021/03/25 10:08:03;;;;;;;4.45;2.33;;;15.10;99.90;;;;;;4376912;32;20058;-75
2021/03/25 10:10:37;;;;;;;4.35;1.45;;;15.30;99.90;;;;;;4380433;32;20507;-75
2021/03/25 10:13:06;;;;;;;3.67;2.72;;;15.40;99.90;;;;;;4381993;32;20475;-76
2021/03/25 10:15:39;;;;;;;4.80;1.73;;;15.50;99.90;;;;;;4383481;32;20114;-75
2021/03/25 10:18:09;;;;;;;8.63;2.35;;;15.50;99.90;;;;;;4381988;32;20078;-75
2021/03/25 10:21:14;;;;;;;5.50;2.17;;;15.50;99.90;;;;;;4380583;32;20063;-76
2021/03/25 10:23:55;;;;;;;13.68;1.48;;;15.70;99.90;;;;;;4372720;32;20114;-77
2021/03/25 10:26:30;;;;;;;7.10;1.10;;;15.70;99.90;;;;;;4380000;32;20521;-77
2021/03/25 10:29:03;;;;;;;5.20;1.50;;;15.90;99.90;;;;;;4377183;32;20398;-77
2021/03/25 10:31:40;;;;;;;8.10;2.15;;;16.00;99.90;;;;;;4379781;32;20078;-77
2021/03/25 10:34:28;;;;;;;5.45;2.55;;;16.00;99.90;;;;;;4379182;32;20070;-76
2021/03/25 10:37:01;;;;;;;5.62;2.40;;;16.20;99.90;;;;;;4379764;32;20062;-77
2021/03/25 10:39:36;;;;;;;10.75;1.83;;;16.30;99.90;;;;;;4385542;32;20087;-77
2021/03/25 10:42:36;;;;;;;8.68;2.45;;;16.50;99.90;;;;;;4386597;32;20119;-77
2021/03/25 10:45:26;;;;;;;4.57;1.40;;;16.50;99.90;;;;;;4382858;32;20113;-77
2021/03/25 10:48:01;;;;;;;13.93;3.08;;;16.50;99.90;;;;;;4383208;32;20087;-76
2021/03/25 10:50:48;;;;;;;13.75;3.00;;;16.70;99.90;;;;;;4381606;32;20519;-77
2021/03/25 10:53:19;;;;;;;4.72;1.58;;;16.60;99.90;;;;;;4371683;32;20091;-76
2021/03/25 10:55:47;;;;;;;17.77;1.60;;;16.50;99.90;;;;;;4361537;32;20067;-76
2021/03/25 10:58:22;;;;;;;3.50;1.65;;;16.50;99.90;;;;;;4379607;32;20647;-75
2021/03/25 11:00:48;;;;;;;4.43;1.33;;;16.40;99.90;;;;;;4376343;32;20079;-75
2021/03/25 11:03:21;;;;;;;8.75;2.20;;;16.50;99.90;;;;;;4374985;32;21347;-77
2021/03/25 11:05:53;;;;;;;3.25;1.40;;;16.50;99.90;;;;;;4389625;32;20094;-80
2021/03/25 11:08:30;;;;;;;15.45;2.62;;;16.70;99.90;;;;;;4387965;32;20465;-78
2021/03/25 11:10:58;;;;;;;3.00;1.48;;;16.80;99.80;;;;;;4385256;32;20066;-77
2021/03/25 11:13:25;;;;;;;4.75;1.52;;;16.80;99.90;;;;;;4385695;32;20062;-77
2021/03/25 11:16:15;;;;;;;9.07;1.70;;;16.80;99.10;;;;;;4389490;32;20448;-79
2021/03/25 11:18:49;;;;;;;2.53;1.00;;;16.80;98.40;;;;;;4377232;32;20592;-79
2021/03/25 11:21:27;;;;;;;6.45;1.48;;;16.70;99.00;;;;;;4390106;32;20059;-77
2021/03/25 11:24:01;;;;;;;1.95;1.40;;;16.90;99.30;;;;;;4387559;32;20089;-76
2021/03/25 11:26:27;;;;;;;19.67;2.15;;;16.90;98.10;;;;;;4383264;32;20071;-77
2021/03/25 11:28:52;;;;;;;9.30;1.95;;;16.70;97.80;;;;;;4385351;32;20078;-78
2021/03/25 11:31:24;;;;;;;6.43;2.05;;;16.90;98.00;;;;;;4387207;32;20066;-78
2021/03/25 11:33:52;;;;;;;3.92;1.35;;;17.10;97.70;;;;;;4386907;32;20062;-78
2021/03/25 11:36:46;;;;;;;1.25;1.00;;;17.10;97.20;;;;;;4388194;32;20458;-78
2021/03/25 11:39:29;;;;;;;9.30;2.00;;;17.60;97.40;;;;;;4368534;32;20121;-74
2021/03/25 11:41:58;;;;;;;4.78;1.42;;;17.90;95.30;;;;;;4380122;32;20121;-75
2021/03/25 11:44:42;;;;;;;4.30;1.70;;;18.00;94.80;;;;;;4382347;32;20061;-75
2021/03/25 11:47:44;;;;;;;4.05;1.52;;;18.10;94.40;;;;;;4382371;32;20159;-75
2021/03/25 11:50:15;;;;;;;5.65;2.33;;;18.40;94.00;;;;;;4380258;32;20071;-75
2021/03/25 11:52:48;;;;;;;2.80;1.30;;;18.40;93.40;;;;;;4381806;32;20081;-75
2021/03/25 11:55:36;;;;;;;3.58;1.80;;;18.60;93.80;;;;;;4374810;32;20114;-75
2021/03/25 11:58:17;;;;;;;2.60;1.15;;;18.60;92.00;;;;;;4378535;32;20070;-74
2021/03/25 12:01:17;;;;;;;5.32;1.12;;;18.60;92.20;;;;;;4383409;32;20152;-74
2021/03/25 12:03:50;;;;;;;4.53;1.95;;;18.20;92.00;;;;;;4382765;32;20519;-74
2021/03/25 12:06:18;;;;;;;10.27;1.52;;;18.00;92.50;;;;;;4381362;32;20070;-75
2021/03/25 12:08:44;;;;;;;10.80;2.25;;;18.40;92.60;;;;;;4380162;32;20071;-74
2021/03/25 12:11:11;;;;;;;5.10;2.17;;;18.20;91.40;;;;;;4381897;32;20058;-74
2021/03/25 12:13:39;;;;;;;2.25;1.20;;;17.80;92.50;;;;;;4380527;32;20079;-75
2021/03/25 12:16:07;;;;;;;15.70;2.50;;;17.70;92.70;;;;;;4381750;32;20066;-74
2021/03/25 12:18:37;;;;;;;5.10;1.73;;;18.00;93.10;;;;;;4381456;32;20118;-75
2021/03/25 12:21:07;;;;;;;2.73;1.57;;;18.40;92.40;;;;;;4383509;32;20151;-75
2021/03/25 12:23:37;;;;;;;3.12;1.33;;;18.50;92.10;;;;;;4382666;32;20618;-75
2021/03/25 12:26:06;;;;;;;3.72;1.37;;;18.80;91.10;;;;;;4382212;32;20066;-75
2021/03/25 12:28:33;;;;;;;6.05;1.15;;;19.30;90.40;;;;;;4380472;32;20137;-75
2021/03/25 12:30:59;;;;;;;2.58;1.52;;;19.50;89.50;;;;;;4380415;32;20047;-76
2021/03/25 12:33:34;;;;;;;9.50;2.25;;;19.40;88.10;;;;;;4378976;32;20067;-76
2021/03/25 12:36:01;;;;;;;8.10;1.87;;;19.20;87.90;;;;;;4381983;32;20131;-76
2021/03/25 12:38:27;;;;;;;8.23;1.17;;;19.10;87.90;;;;;;4384012;32;20125;-76
2021/03/25 12:40:53;;;;;;;10.07;1.80;;;18.80;88.70;;;;;;4381073;32;20066;-76
2021/03/25 12:43:24;;;;;;;5.93;1.83;;;18.50;89.20;;;;;;4380710;32;20067;-75
2021/03/25 12:45:53;;;;;;;4.20;1.75;;;18.50;91.00;;;;;;4381333;32;20054;-75
2021/03/25 12:48:20;;;;;;;9.63;1.42;;;18.20;90.70;;;;;;4380445;32;20078;-74
2021/03/25 12:50:47;;;;;;;2.65;1.50;;;17.90;90.80;;;;;;4381167;32;20429;-75
2021/03/25 12:53:13;;;;;;;4.07;1.67;;;17.70;91.20;;;;;;4380975;32;20071;-75
2021/03/25 12:55:39;;;;;;;4.43;1.77;;;17.60;91.50;;;;;;4378128;32;20103;-74
2021/03/25 12:58:05;;;;;;;1.12;0.90;;;17.80;91.30;;;;;;4378480;32;20070;-75
2021/03/25 13:00:36;;;;;;;0.93;0.85;;;17.90;91.10;;;;;;4380433;32;20503;-75
2021/03/25 13:03:03;;;;;;;8.32;3.70;;;18.50;91.00;;;;;;4379749;32;20134;-75
2021/03/25 13:05:28;;;;;;;3.08;1.33;;;18.30;90.00;;;;;;4377901;32;20067;-76
2021/03/25 13:07:54;;;;;;;4.87;1.50;;;18.50;89.10;;;;;;4380359;32;20531;-76
2021/03/25 13:10:22;;;;;;;2.15;1.20;;;18.90;88.30;;;;;;4379803;32;20062;-76
2021/03/25 13:12:49;;;;;;;4.20;2.15;;;18.90;86.50;;;;;;4381611;32;20070;-76
2021/03/25 13:15:17;;;;;;;4.05;1.80;;;18.70;86.90;;;;;;4381609;32;20066;-75
2021/03/25 13:17:42;;;;;;;4.85;1.77;;;18.50;87.70;;;;;;4381908;32;20062;-75
2021/03/25 13:20:09;;;;;;;5.07;1.90;;;18.50;89.00;;;;;;4380928;32;20149;-75
2021/03/25 13:22:36;;;;;;;1.70;1.12;;;18.40;89.50;;;;;;4381369;32;20125;-76
2021/03/25 13:25:03;;;;;;;1.48;1.37;;;18.10;89.50;;;;;;4382076;32;20508;-74
2021/03/25 13:27:29;;;;;;;5.87;2.25;;;17.90;92.00;;;;;;4378598;32;20071;-75
2021/03/25 13:29:54;;;;;;;8.98;1.90;;;18.10;90.70;;;;;;4382311;32;20066;-75